sensor_id;sensor_type;location;lat;lon;timestamp;pressure;altitude;pressure_sealevel;temperature;humidity
35519;BME280;21627;48.216;16.482;2023-04-02T00:03:00;98887.00;;;10.08;90.04
35519;BME280;21627;48.216;16.482;2023-04-02T00:05:50;98886.97;;;10.11;89.66
35519;BME280;21627;48.216;16.482;2023-04-02T00:08:36;98890.34;;;10.16;88.71
35519;BME280;21627;48.216;16.482;2023-04-02T00:11:07;98893.81;;;10.12;88.91
35519;BME280;21627;48.216;16.482;2023-04-02T00:13:42;98886.13;;;10.08;88.69
35519;BME280;21627;48.216;16.482;2023-04-02T00:16:13;98891.28;;;10.11;89.00
35519;BME280;21627;48.216;16.482;2023-04-02T00:18:47;98868.91;;;10.10;88.26
35519;BME280;21627;48.216;16.482;2023-04-02T00:21:23;98889.44;;;10.21;87.85
35519;BME280;21627;48.216;16.482;2023-04-02T00:23:54;98887.75;;;10.18;88.37
35519;BME280;21627;48.216;16.482;2023-04-02T00:26:38;98874.16;;;10.04;89.48
35519;BME280;21627;48.216;16.482;2023-04-02T00:29:11;98887.75;;;10.16;88.77
35519;BME280;21627;48.216;16.482;2023-04-02T00:31:42;98881.81;;;10.10;88.12
35519;BME280;21627;48.216;16.482;2023-04-02T00:34:35;98889.50;;;10.16;87.09
35519;BME280;21627;48.216;16.482;2023-04-02T00:37:04;98883.41;;;10.22;86.55
35519;BME280;21627;48.216;16.482;2023-04-02T00:39:37;98888.63;;;10.17;85.65
35519;BME280;21627;48.216;16.482;2023-04-02T00:42:08;98890.41;;;10.13;87.30
35519;BME280;21627;48.216;16.482;2023-04-02T00:44:40;98885.19;;;10.16;87.39
35519;BME280;21627;48.216;16.482;2023-04-02T00:47:26;98886.88;;;10.21;87.15
35519;BME280;21627;48.216;16.482;2023-04-02T00:49:58;98892.94;;;10.18;87.46
35519;BME280;21627;48.216;16.482;2023-04-02T00:52:30;98886.78;;;10.27;88.09
35519;BME280;21627;48.216;16.482;2023-04-02T00:55:12;98883.44;;;10.18;87.95
35519;BME280;21627;48.216;16.482;2023-04-02T00:57:42;98887.81;;;10.12;88.89
35519;BME280;21627;48.216;16.482;2023-04-02T01:00:48;98889.59;;;10.07;91.30
35519;BME280;21627;48.216;16.482;2023-04-02T01:05:54;98895.78;;;9.93;96.18
35519;BME280;21627;48.216;16.482;2023-04-02T01:08:43;98895.91;;;9.83;99.26
35519;BME280;21627;48.216;16.482;2023-04-02T01:14:32;98876.44;;;9.52;100.00
35519;BME280;21627;48.216;16.482;2023-04-02T01:17:05;98894.44;;;9.57;100.00
35519;BME280;21627;48.216;16.482;2023-04-02T01:19:43;98891.94;;;9.49;100.00
35519;BME280;21627;48.216;16.482;2023-04-02T01:23:23;98889.31;;;9.54;100.00
35519;BME280;21627;48.216;16.482;2023-04-02T01:25:52;98886.69;;;9.57;100.00
35519;BME280;21627;48.216;16.482;2023-04-02T01:30:54;98899.66;;;9.51;99.09
35519;BME280;21627;48.216;16.482;2023-04-02T01:33:28;98898.88;;;9.41;99.46
35519;BME280;21627;48.216;16.482;2023-04-02T01:38:46;98886.00;;;9.41;99.36
35519;BME280;21627;48.216;16.482;2023-04-02T01:41:35;98897.94;;;9.51;97.84
35519;BME280;21627;48.216;16.482;2023-04-02T01:44:08;98898.88;;;9.43;99.17
35519;BME280;21627;48.216;16.482;2023-04-02T01:46:40;98886.81;;;9.46;98.02
35519;BME280;21627;48.216;16.482;2023-04-02T01:49:15;98889.41;;;9.43;99.27
35519;BME280;21627;48.216;16.482;2023-04-02T01:51:50;98879.94;;;9.42;98.58
35519;BME280;21627;48.216;16.482;2023-04-02T01:54:20;98884.19;;;9.49;97.92
35519;BME280;21627;48.216;16.482;2023-04-02T01:56:49;98881.59;;;9.49;97.11
35519;BME280;21627;48.216;16.482;2023-04-02T01:59:19;98892.81;;;9.50;98.27
35519;BME280;21627;48.216;16.482;2023-04-02T02:02:03;98895.38;;;9.50;97.22
35519;BME280;21627;48.216;16.482;2023-04-02T02:04:32;98888.56;;;9.43;97.61
35519;BME280;21627;48.216;16.482;2023-04-02T02:07:00;98900.59;;;9.42;98.96
35519;BME280;21627;48.216;16.482;2023-04-02T02:09:33;98900.56;;;9.47;98.47
35519;BME280;21627;48.216;16.482;2023-04-02T02:12:04;98891.16;;;9.41;98.76
35519;BME280;21627;48.216;16.482;2023-04-02T02:14:32;98902.28;;;9.48;98.51
35519;BME280;21627;48.216;16.482;2023-04-02T02:17:02;98911.75;;;9.44;98.32
35519;BME280;21627;48.216;16.482;2023-04-02T02:19:47;98907.44;;;9.45;98.71
35519;BME280;21627;48.216;16.482;2023-04-02T02:22:29;98900.59;;;9.44;98.54
35519;BME280;21627;48.216;16.482;2023-04-02T02:25:01;98908.31;;;9.42;98.98
35519;BME280;21627;48.216;16.482;2023-04-02T02:30:30;98913.56;;;9.38;99.76
35519;BME280;21627;48.216;16.482;2023-04-02T02:36:34;98912.63;;;9.43;99.10
35519;BME280;21627;48.216;16.482;2023-04-02T02:39:45;98910.06;;;9.43;99.36
35519;BME280;21627;48.216;16.482;2023-04-02T02:42:40;98913.56;;;9.38;99.91
35519;BME280;21627;48.216;16.482;2023-04-02T02:45:24;98908.38;;;9.39;99.40
35519;BME280;21627;48.216;16.482;2023-04-02T02:47:52;98910.97;;;9.35;100.00
35519;BME280;21627;48.216;16.482;2023-04-02T02:50:27;98909.28;;;9.34;100.00
35519;BME280;21627;48.216;16.482;2023-04-02T02:53:05;98903.22;;;9.36;100.00
35519;BME280;21627;48.216;16.482;2023-04-02T02:55:35;98909.28;;;9.34;100.00
35519;BME280;21627;48.216;16.482;2023-04-02T02:58:25;98902.34;;;9.37;99.52
35519;BME280;21627;48.216;16.482;2023-04-02T03:00:54;98910.88;;;9.50;98.88
35519;BME280;21627;48.216;16.482;2023-04-02T03:03:26;98921.22;;;9.44;99.91
35519;BME280;21627;48.216;16.482;2023-04-02T03:06:03;98916.94;;;9.40;100.00
35519;BME280;21627;48.216;16.482;2023-04-02T03:12:18;98915.25;;;9.37;99.94
35519;BME280;21627;48.216;16.482;2023-04-02T03:15:45;98928.06;;;9.52;99.39
35519;BME280;21627;48.216;16.482;2023-04-02T03:18:30;98930.72;;;9.40;100.00
35519;BME280;21627;48.216;16.482;2023-04-02T03:24:18;98935.06;;;9.35;100.00
35519;BME280;21627;48.216;16.482;2023-04-02T03:29:40;98924.75;;;9.35;100.00
35519;BME280;21627;48.216;16.482;2023-04-02T03:32:37;98938.50;;;9.36;100.00
35519;BME280;21627;48.216;16.482;2023-04-02T03:38:21;98933.34;;;9.36;100.00
35519;BME280;21627;48.216;16.482;2023-04-02T03:43:39;98939.44;;;9.24;100.00
35519;BME280;21627;48.216;16.482;2023-04-02T03:49:34;98937.78;;;9.20;100.00
35519;BME280;21627;48.216;16.482;2023-04-02T03:55:18;98953.16;;;9.29;100.00
35519;BME280;21627;48.216;16.482;2023-04-02T03:58:16;98956.69;;;9.20;100.00
35519;BME280;21627;48.216;16.482;2023-04-02T04:01:18;98956.59;;;9.29;100.00
35519;BME280;21627;48.216;16.482;2023-04-02T04:04:06;98955.81;;;9.23;100.00
35519;BME280;21627;48.216;16.482;2023-04-02T04:06:41;98967.81;;;9.24;100.00
35519;BME280;21627;48.216;16.482;2023-04-02T04:11:59;98968.66;;;9.26;100.00
35519;BME280;21627;48.216;16.482;2023-04-02T04:14:31;98977.28;;;9.25;100.00
35519;BME280;21627;48.216;16.482;2023-04-02T04:22:34;98991.78;;;9.40;100.00
35519;BME280;21627;48.216;16.482;2023-04-02T04:25:05;98992.69;;;9.36;100.00
35519;BME280;21627;48.216;16.482;2023-04-02T04:31:07;99003.88;;;9.31;100.00
35519;BME280;21627;48.216;16.482;2023-04-02T04:33:43;98999.53;;;9.38;100.00
35519;BME280;21627;48.216;16.482;2023-04-02T04:36:27;98998.66;;;9.39;100.00
35519;BME280;21627;48.216;16.482;2023-04-02T04:39:05;99007.31;;;9.35;100.00
35519;BME280;21627;48.216;16.482;2023-04-02T04:41:38;99004.69;;;9.37;100.00
35519;BME280;21627;48.216;16.482;2023-04-02T04:44:37;99006.44;;;9.35;100.00
35519;BME280;21627;48.216;16.482;2023-04-02T04:47:32;99013.34;;;9.31;100.00
35519;BME280;21627;48.216;16.482;2023-04-02T04:50:17;99013.25;;;9.42;100.00
35519;BME280;21627;48.216;16.482;2023-04-02T04:52:48;99011.66;;;9.28;100.00
35519;BME280;21627;48.216;16.482;2023-04-02T04:55:28;99023.63;;;9.34;100.00
35519;BME280;21627;48.216;16.482;2023-04-02T04:58:17;99017.59;;;9.38;100.00
35519;BME280;21627;48.216;16.482;2023-04-02T05:06:10;99022.78;;;9.35;100.00
35519;BME280;21627;48.216;16.482;2023-04-02T05:08:44;99029.66;;;9.36;100.00
35519;BME280;21627;48.216;16.482;2023-04-02T05:11:40;99030.50;;;9.38;100.00
35519;BME280;21627;48.216;16.482;2023-04-02T05:14:31;99037.34;;;9.42;100.00
35519;BME280;21627;48.216;16.482;2023-04-02T05:18:09;99044.19;;;9.46;100.00
35519;BME280;21627;48.216;16.482;2023-04-02T05:20:55;99050.19;;;9.53;100.00
35519;BME280;21627;48.216;16.482;2023-04-02T05:23:28;99039.81;;;9.59;100.00
35519;BME280;21627;48.216;16.482;2023-04-02T05:29:21;99047.59;;;9.51;100.00
35519;BME280;21627;48.216;16.482;2023-04-02T05:32:03;99039.88;;;9.47;100.00
35519;BME280;21627;48.216;16.482;2023-04-02T05:34:37;99037.31;;;9.50;100.00
35519;BME280;21627;48.216;16.482;2023-04-02T05:37:20;99037.31;;;9.50;100.00
35519;BME280;21627;48.216;16.482;2023-04-02T05:40:04;99046.75;;;9.49;100.00
35519;BME280;21627;48.216;16.482;2023-04-02T05:42:42;99046.69;;;9.60;100.00
35519;BME280;21627;48.216;16.482;2023-04-02T05:45:21;99051.91;;;9.49;100.00
35519;BME280;21627;48.216;16.482;2023-04-02T05:47:54;99053.66;;;9.46;100.00
35519;BME280;21627;48.216;16.482;2023-04-02T05:50:41;99058.78;;;9.52;100.00
35519;BME280;21627;48.216;16.482;2023-04-02T06:01:31;99064.75;;;9.57;100.00
35519;BME280;21627;48.216;16.482;2023-04-02T06:12:50;99061.38;;;9.47;100.00
35519;BME280;21627;48.216;16.482;2023-04-02T06:15:21;99075.13;;;9.51;100.00
35519;BME280;21627;48.216;16.482;2023-04-02T06:18:03;99078.50;;;9.59;100.00
35519;BME280;21627;48.216;16.482;2023-04-02T06:20:31;99082.81;;;9.59;100.00
35519;BME280;21627;48.216;16.482;2023-04-02T06:26:32;99078.59;;;9.47;100.00
35519;BME280;21627;48.216;16.482;2023-04-02T06:29:19;99092.34;;;9.50;100.00
35519;BME280;21627;48.216;16.482;2023-04-02T06:31:59;99088.06;;;9.46;100.00
35519;BME280;21627;48.216;16.482;2023-04-02T06:34:29;99091.50;;;9.48;100.00
35519;BME280;21627;48.216;16.482;2023-04-02T06:39:47;99094.94;;;9.49;100.00
35519;BME280;21627;48.216;16.482;2023-04-02T06:42:31;99100.94;;;9.51;100.00
35519;BME280;21627;48.216;16.482;2023-04-02T06:45:00;99106.94;;;9.54;100.00
35519;BME280;21627;48.216;16.482;2023-04-02T06:47:45;99108.59;;;9.68;100.00
35519;BME280;21627;48.216;16.482;2023-04-02T06:50:25;99102.53;;;9.70;100.00
35519;BME280;21627;48.216;16.482;2023-04-02T06:53:03;99111.03;;;9.85;100.00
35519;BME280;21627;48.216;16.482;2023-04-02T06:58:37;99096.28;;;9.99;100.00
35519;BME280;21627;48.216;16.482;2023-04-02T07:01:05;99110.81;;;10.15;100.00
35519;BME280;21627;48.216;16.482;2023-04-02T07:03:33;99104.75;;;10.15;100.00
35519;BME280;21627;48.216;16.482;2023-04-02T07:06:01;99115.88;;;10.31;100.00
35519;BME280;21627;48.216;16.482;2023-04-02T07:08:29;99120.13;;;10.35;100.00
35519;BME280;21627;48.216;16.482;2023-04-02T07:10:56;99115.75;;;10.40;100.00
35519;BME280;21627;48.216;16.482;2023-04-02T07:13:25;99120.00;;;10.49;100.00
35519;BME280;21627;48.216;16.482;2023-04-02T07:15:53;99121.59;;;10.60;100.00
35519;BME280;21627;48.216;16.482;2023-04-02T07:18:32;99123.34;;;10.55;100.00
35519;BME280;21627;48.216;16.482;2023-04-02T07:20:59;99126.75;;;10.60;100.00
35519;BME280;21627;48.216;16.482;2023-04-02T07:23:27;99132.69;;;10.72;100.00
35519;BME280;21627;48.216;16.482;2023-04-02T07:25:55;99136.06;;;10.75;100.00
35519;BME280;21627;48.216;16.482;2023-04-02T07:28:24;99128.25;;;10.83;100.00
35519;BME280;21627;48.216;16.482;2023-04-02T07:30:51;99136.72;;;10.96;100.00
35519;BME280;21627;48.216;16.482;2023-04-02T07:33:24;99133.31;;;10.92;100.00
35519;BME280;21627;48.216;16.482;2023-04-02T07:35:54;99134.06;;;11.00;100.00
35519;BME280;21627;48.216;16.482;2023-04-02T07:38:22;99136.56;;;11.08;100.00
35519;BME280;21627;48.216;16.482;2023-04-02T07:40:49;99145.91;;;11.21;100.00
35519;BME280;21627;48.216;16.482;2023-04-02T07:43:16;99157.13;;;11.22;100.00
35519;BME280;21627;48.216;16.482;2023-04-02T07:45:43;99141.56;;;11.23;100.00
35519;BME280;21627;48.216;16.482;2023-04-02T07:48:12;99142.28;;;11.35;100.00
35519;BME280;21627;48.216;16.482;2023-04-02T07:50:40;99150.75;;;11.46;99.25
35519;BME280;21627;48.216;16.482;2023-04-02T07:53:24;99155.81;;;11.57;100.00
35519;BME280;21627;48.216;16.482;2023-04-02T07:55:54;99159.22;;;11.59;100.00
35519;BME280;21627;48.216;16.482;2023-04-02T07:58:21;99168.44;;;11.77;97.01
35519;BME280;21627;48.216;16.482;2023-04-02T08:00:48;99167.59;;;11.76;97.68
35519;BME280;21627;48.216;16.482;2023-04-02T08:03:16;99168.31;;;11.89;98.38
35519;BME280;21627;48.216;16.482;2023-04-02T08:05:49;99165.53;;;12.01;96.76
35519;BME280;21627;48.216;16.482;2023-04-02T08:08:16;99162.75;;;12.15;94.68
35519;BME280;21627;48.216;16.482;2023-04-02T08:10:43;99168.72;;;12.19;96.61
35519;BME280;21627;48.216;16.482;2023-04-02T08:13:12;99169.31;;;12.36;96.05
35519;BME280;21627;48.216;16.482;2023-04-02T08:15:39;99179.81;;;12.27;93.38
35519;BME280;21627;48.216;16.482;2023-04-02T08:18:08;99176.44;;;12.25;93.78
35519;BME280;21627;48.216;16.482;2023-04-02T08:20:35;99179.09;;;12.20;92.04
35519;BME280;21627;48.216;16.482;2023-04-02T08:23:04;99169.94;;;11.96;92.49
35519;BME280;21627;48.216;16.482;2023-04-02T08:25:33;99187.06;;;12.06;93.22
35519;BME280;21627;48.216;16.482;2023-04-02T08:28:00;99183.50;;;12.15;93.42
35519;BME280;21627;48.216;16.482;2023-04-02T08:30:28;99186.72;;;12.28;94.33
35519;BME280;21627;48.216;16.482;2023-04-02T08:32:55;99197.06;;;12.29;93.95
35519;BME280;21627;48.216;16.482;2023-04-02T08:35:22;99193.44;;;12.41;93.01
35519;BME280;21627;48.216;16.482;2023-04-02T08:37:49;99191.59;;;12.46;92.04
35519;BME280;21627;48.216;16.482;2023-04-02T08:41:00;99186.34;;;12.52;92.46
35519;BME280;21627;48.216;16.482;2023-04-02T08:43:57;99195.56;;;12.67;89.68
35519;BME280;21627;48.216;16.482;2023-04-02T08:47:02;99202.34;;;12.76;91.17
35519;BME280;21627;48.216;16.482;2023-04-02T08:49:59;99196.38;;;12.71;90.71
35519;BME280;21627;48.216;16.482;2023-04-02T08:52:33;99205.44;;;12.95;91.53
35519;BME280;21627;48.216;16.482;2023-04-02T08:55:09;99211.41;;;13.00;91.36
35519;BME280;21627;48.216;16.482;2023-04-02T09:02:55;99209.72;;;12.97;88.12
35519;BME280;21627;48.216;16.482;2023-04-02T09:05:29;99215.69;;;13.03;88.36
35519;BME280;21627;48.216;16.482;2023-04-02T09:08:01;99219.03;;;13.08;84.28
35519;BME280;21627;48.216;16.482;2023-04-02T09:10:38;99204.59;;;12.94;84.99
35519;BME280;21627;48.216;16.482;2023-04-02T09:13:20;99220.06;;;13.01;83.42
35519;BME280;21627;48.216;16.482;2023-04-02T09:15:53;99219.31;;;12.94;84.69
35519;BME280;21627;48.216;16.482;2023-04-02T09:18:22;99218.31;;;13.01;83.98
35519;BME280;21627;48.216;16.482;2023-04-02T09:20:49;99215.81;;;12.96;86.37
35519;BME280;21627;48.216;16.482;2023-04-02T09:23:23;99233.63;;;13.15;85.19
35519;BME280;21627;48.216;16.482;2023-04-02T09:25:52;99231.78;;;13.21;85.33
35519;BME280;21627;48.216;16.482;2023-04-02T09:28:30;99230.84;;;13.27;83.63
35519;BME280;21627;48.216;16.482;2023-04-02T09:31:26;99237.75;;;13.25;83.69
35519;BME280;21627;48.216;16.482;2023-04-02T09:33:56;99232.69;;;13.19;83.00
35519;BME280;21627;48.216;16.482;2023-04-02T09:36:33;99242.66;;;12.95;83.77
35519;BME280;21627;48.216;16.482;2023-04-02T09:39:23;99238.38;;;12.91;82.19
35519;BME280;21627;48.216;16.482;2023-04-02T09:41:54;99249.34;;;13.07;82.12
35519;BME280;21627;48.216;16.482;2023-04-02T09:44:32;99248.25;;;13.20;82.50
35519;BME280;21627;48.216;16.482;2023-04-02T09:47:04;99239.97;;;13.47;80.22
35519;BME280;21627;48.216;16.482;2023-04-02T09:49:38;99240.59;;;13.58;80.17
35519;BME280;21627;48.216;16.482;2023-04-02T09:52:28;99254.25;;;13.69;77.96
35519;BME280;21627;48.216;16.482;2023-04-02T09:57:42;99252.09;;;13.88;74.94
35519;BME280;21627;48.216;16.482;2023-04-02T10:00:21;99259.63;;;14.00;75.19
35519;BME280;21627;48.216;16.482;2023-04-02T10:03:31;99259.69;;;13.99;74.37
35519;BME280;21627;48.216;16.482;2023-04-02T10:06:09;99260.47;;;14.02;76.00
35519;BME280;21627;48.216;16.482;2023-04-02T10:08:40;99254.56;;;13.94;75.03
35519;BME280;21627;48.216;16.482;2023-04-02T10:11:33;99251.84;;;14.00;75.64
35519;BME280;21627;48.216;16.482;2023-04-02T10:14:20;99258.41;;;14.17;75.27
35519;BME280;21627;48.216;16.482;2023-04-02T10:16:54;99263.69;;;14.14;73.69
35519;BME280;21627;48.216;16.482;2023-04-02T10:19:31;99267.41;;;14.02;73.18
35519;BME280;21627;48.216;16.482;2023-04-02T10:22:07;99267.34;;;14.03;74.24
35519;BME280;21627;48.216;16.482;2023-04-02T10:24:39;99266.34;;;14.11;74.34
35519;BME280;21627;48.216;16.482;2023-04-02T10:33:11;99260.81;;;13.85;78.77
35519;BME280;21627;48.216;16.482;2023-04-02T10:36:10;99259.25;;;13.78;81.36
35519;BME280;21627;48.216;16.482;2023-04-02T10:38:50;99268.75;;;13.79;82.04
35519;BME280;21627;48.216;16.482;2023-04-02T10:47:11;99269.03;;;13.66;84.81
35519;BME280;21627;48.216;16.482;2023-04-02T10:51:00;99266.25;;;13.73;83.26
35519;BME280;21627;48.216;16.482;2023-04-02T10:53:09;99267.81;;;13.83;81.77
35519;BME280;21627;48.216;16.482;2023-04-02T10:55:43;99276.53;;;13.81;80.73
35519;BME280;21627;48.216;16.482;2023-04-02T10:58:27;99280.72;;;13.87;80.15
35519;BME280;21627;48.216;16.482;2023-04-02T11:01:15;99273.78;;;13.87;82.63
35519;BME280;21627;48.216;16.482;2023-04-02T11:03:49;99281.72;;;13.81;78.40
35519;BME280;21627;48.216;16.482;2023-04-02T11:06:28;99288.69;;;13.79;79.99
35519;BME280;21627;48.216;16.482;2023-04-02T11:09:01;99291.78;;;13.53;80.11
35519;BME280;21627;48.216;16.482;2023-04-02T11:11:39;99291.00;;;13.49;81.54
35519;BME280;21627;48.216;16.482;2023-04-02T11:14:25;99292.91;;;13.39;80.73
35519;BME280;21627;48.216;16.482;2023-04-02T11:16:57;99298.13;;;13.38;81.23
35519;BME280;21627;48.216;16.482;2023-04-02T11:19:30;99302.53;;;13.34;80.05
35519;BME280;21627;48.216;16.482;2023-04-02T11:24:47;99309.94;;;13.56;78.63
35519;BME280;21627;48.216;16.482;2023-04-02T11:27:33;99309.41;;;13.38;79.90
35519;BME280;21627;48.216;16.482;2023-04-02T11:32:46;99329.00;;;13.04;82.41
35519;BME280;21627;48.216;16.482;2023-04-02T11:35:36;99340.84;;;12.66;88.00
35519;BME280;21627;48.216;16.482;2023-04-02T11:40:53;99367.00;;;11.81;100.00
35519;BME280;21627;48.216;16.482;2023-04-02T11:48:33;99394.81;;;10.48;100.00
35519;BME280;21627;48.216;16.482;2023-04-02T11:53:51;99407.88;;;10.08;100.00
35519;BME280;21627;48.216;16.482;2023-04-02T11:56:30;99414.84;;;9.87;100.00
35519;BME280;21627;48.216;16.482;2023-04-02T12:02:23;99426.94;;;9.54;100.00
35519;BME280;21627;48.216;16.482;2023-04-02T12:10:32;99437.28;;;9.02;100.00
35519;BME280;21627;48.216;16.482;2023-04-02T12:13:00;99440.69;;;8.97;100.00
35519;BME280;21627;48.216;16.482;2023-04-02T12:15:44;99438.13;;;8.94;100.00
35519;BME280;21627;48.216;16.482;2023-04-02T12:18:23;99446.72;;;8.85;100.00
35519;BME280;21627;48.216;16.482;2023-04-02T12:20:55;99453.56;;;8.77;100.00
35519;BME280;21627;48.216;16.482;2023-04-02T12:23:32;99441.50;;;8.74;100.00
35519;BME280;21627;48.216;16.482;2023-04-02T12:26:19;99454.41;;;8.76;100.00
35519;BME280;21627;48.216;16.482;2023-04-02T12:28:50;99457.00;;;8.83;100.00
35519;BME280;21627;48.216;16.482;2023-04-02T12:31:24;99441.50;;;8.74;100.00
35519;BME280;21627;48.216;16.482;2023-04-02T12:33:52;99466.50;;;8.87;100.00
35519;BME280;21627;48.216;16.482;2023-04-02T12:36:22;99466.47;;;8.86;100.00
35519;BME280;21627;48.216;16.482;2023-04-02T12:38:57;99461.34;;;8.87;100.00
35519;BME280;21627;48.216;16.482;2023-04-02T12:41:35;99479.38;;;8.86;100.00
35519;BME280;21627;48.216;16.482;2023-04-02T12:44:05;99474.22;;;8.86;100.00
35519;BME280;21627;48.216;16.482;2023-04-02T12:46:38;99478.50;;;8.81;100.00
35519;BME280;21627;48.216;16.482;2023-04-02T12:52:04;99484.47;;;8.66;100.00
35519;BME280;21627;48.216;16.482;2023-04-02T12:54:44;99487.88;;;8.54;100.00
35519;BME280;21627;48.216;16.482;2023-04-02T13:03:18;99499.81;;;8.40;100.00
35519;BME280;21627;48.216;16.482;2023-04-02T13:05:53;99488.56;;;8.30;100.00
35519;BME280;21627;48.216;16.482;2023-04-02T13:08:36;99502.38;;;8.41;100.00
35519;BME280;21627;48.216;16.482;2023-04-02T13:11:04;99507.50;;;8.37;100.00
35519;BME280;21627;48.216;16.482;2023-04-02T13:13:38;99501.50;;;8.35;100.00
35519;BME280;21627;48.216;16.482;2023-04-02T13:18:47;99505.78;;;8.36;100.00
35519;BME280;21627;48.216;16.482;2023-04-02T13:23:46;99512.59;;;8.28;100.00
35519;BME280;21627;48.216;16.482;2023-04-02T13:26:27;99522.97;;;8.38;100.00
35519;BME280;21627;48.216;16.482;2023-04-02T13:31:29;99518.75;;;8.45;100.00
35519;BME280;21627;48.216;16.482;2023-04-02T13:33:58;99519.63;;;8.47;100.00
35519;BME280;21627;48.216;16.482;2023-04-02T13:36:25;99517.03;;;8.49;100.00
35519;BME280;21627;48.216;16.482;2023-04-02T13:38:56;99529.97;;;8.59;100.00
35519;BME280;21627;48.216;16.482;2023-04-02T13:41:34;99521.41;;;8.65;100.00
35519;BME280;21627;48.216;16.482;2023-04-02T13:44:03;99528.28;;;8.66;100.00
35519;BME280;21627;48.216;16.482;2023-04-02T13:46:33;99527.44;;;8.72;100.00
35519;BME280;21627;48.216;16.482;2023-04-02T13:49:01;99540.34;;;8.75;100.00
35519;BME280;21627;48.216;16.482;2023-04-02T13:51:47;99520.56;;;8.74;100.00
35519;BME280;21627;48.216;16.482;2023-04-02T13:56:49;99534.41;;;9.00;100.00
35519;BME280;21627;48.216;16.482;2023-04-02T13:59:18;99537.91;;;9.22;100.00
35519;BME280;21627;48.216;16.482;2023-04-02T14:01:47;99535.34;;;9.41;100.00
35519;BME280;21627;48.216;16.482;2023-04-02T14:04:27;99536.22;;;9.61;100.00
35519;BME280;21627;48.216;16.482;2023-04-02T14:13:32;99536.19;;;10.36;100.00
35519;BME280;21627;48.216;16.482;2023-04-02T14:16:19;99530.13;;;10.47;100.00
35519;BME280;21627;48.216;16.482;2023-04-02T14:25:44;99542.25;;;9.59;100.00
35519;BME280;21627;48.216;16.482;2023-04-02T14:28:57;99554.25;;;9.32;100.00
35519;BME280;21627;48.216;16.482;2023-04-02T14:32:37;99553.41;;;9.22;100.00
35519;BME280;21627;48.216;16.482;2023-04-02T14:40:49;99562.75;;;8.99;100.00
35519;BME280;21627;48.216;16.482;2023-04-02T14:43:31;99567.81;;;8.74;100.00
35519;BME280;21627;48.216;16.482;2023-04-02T14:46:07;99578.16;;;8.73;100.00
35519;BME280;21627;48.216;16.482;2023-04-02T14:52:04;99575.53;;;8.68;100.00
35519;BME280;21627;48.216;16.482;2023-04-02T14:57:30;99588.38;;;8.60;100.00
35519;BME280;21627;48.216;16.482;2023-04-02T15:03:21;99584.94;;;8.58;100.00
35519;BME280;21627;48.216;16.482;2023-04-02T15:06:15;99589.25;;;8.59;100.00
35519;BME280;21627;48.216;16.482;2023-04-02T15:09:04;99593.63;;;8.76;100.00
35519;BME280;21627;48.216;16.482;2023-04-02T15:11:45;99587.66;;;8.91;100.00
35519;BME280;21627;48.216;16.482;2023-04-02T15:14:34;99591.97;;;8.92;100.00
35519;BME280;21627;48.216;16.482;2023-04-02T15:17:05;99592.84;;;8.97;100.00
35519;BME280;21627;48.216;16.482;2023-04-02T15:19:33;99591.13;;;9.02;100.00
35519;BME280;21627;48.216;16.482;2023-04-02T15:30:41;99614.22;;;8.70;100.00
35519;BME280;21627;48.216;16.482;2023-04-02T15:39:47;99646.66;;;8.41;100.00
35519;BME280;21627;48.216;16.482;2023-04-02T15:42:40;99647.34;;;8.19;100.00
35519;BME280;21627;48.216;16.482;2023-04-02T16:04:39;99702.03;;;7.93;100.00
35519;BME280;21627;48.216;16.482;2023-04-02T16:12:26;99715.56;;;7.72;100.00
35519;BME280;21627;48.216;16.482;2023-04-02T16:15:13;99726.56;;;7.59;100.00
35519;BME280;21627;48.216;16.482;2023-04-02T16:17:46;99712.72;;;7.51;100.00
35519;BME280;21627;48.216;16.482;2023-04-02T16:23:10;99728.13;;;7.48;100.00
35519;BME280;21627;48.216;16.482;2023-04-02T16:26:04;99740.09;;;7.44;100.00
35519;BME280;21627;48.216;16.482;2023-04-02T16:29:05;99743.41;;;7.34;100.00
35519;BME280;21627;48.216;16.482;2023-04-02T16:31:49;99743.28;;;7.23;100.00
35519;BME280;21627;48.216;16.482;2023-04-02T16:46:11;99770.59;;;7.17;100.00
35519;BME280;21627;48.216;16.482;2023-04-02T17:05:40;99802.94;;;7.01;100.00
35519;BME280;21627;48.216;16.482;2023-04-02T17:13:53;99827.53;;;6.85;100.00
35519;BME280;21627;48.216;16.482;2023-04-02T17:19:13;99858.09;;;6.69;100.00
35519;BME280;21627;48.216;16.482;2023-04-02T17:21:48;99842.44;;;6.54;100.00
35519;BME280;21627;48.216;16.482;2023-04-02T17:29:46;99872.97;;;6.39;100.00
35519;BME280;21627;48.216;16.482;2023-04-02T17:32:31;99874.75;;;6.41;100.00
35519;BME280;21627;48.216;16.482;2023-04-02T17:38:20;99894.16;;;6.27;100.00
35519;BME280;21627;48.216;16.482;2023-04-02T17:41:18;99906.22;;;6.31;100.00
35519;BME280;21627;48.216;16.482;2023-04-02T17:52:43;99925.38;;;6.06;100.00
35519;BME280;21627;48.216;16.482;2023-04-02T18:01:16;99955.22;;;6.01;100.00
35519;BME280;21627;48.216;16.482;2023-04-02T18:05:01;99966.00;;;5.86;100.00
35519;BME280;21627;48.216;16.482;2023-04-02T18:07:51;99967.75;;;5.89;100.00
35519;BME280;21627;48.216;16.482;2023-04-02T18:13:40;99982.00;;;5.76;100.00
35519;BME280;21627;48.216;16.482;2023-04-02T18:16:45;99991.31;;;5.71;100.00
35519;BME280;21627;48.216;16.482;2023-04-02T18:19:28;99984.28;;;5.62;100.00
35519;BME280;21627;48.216;16.482;2023-04-02T18:41:01;100043.63;;;5.42;100.00
35519;BME280;21627;48.216;16.482;2023-04-02T18:44:05;100046.97;;;5.40;100.00
35519;BME280;21627;48.216;16.482;2023-04-02T18:47:21;100058.16;;;5.42;100.00
35519;BME280;21627;48.216;16.482;2023-04-02T18:50:32;100062.91;;;5.28;100.00
35519;BME280;21627;48.216;16.482;2023-04-02T18:53:18;100070.66;;;5.30;100.00